Time;durP1;ratioP1;P1;durP2;ratioP2;P2;SDS_P1;SDS_P2;PMS_P1;PMS_P2;Temp;Humidity;BMP_temperature;BMP_pressure;BME280_temperature;BME280_humidity;BME280_pressure;Samples;Min_cycle;Max_cycle;Signal;HPM_P1;HPM_P2
2021/09/27 00:00:32;;;;;;;73.75;36.97;;;15.40;99.90;;;;;;5057456;28;20039;-76
2021/09/27 00:02:58;;;;;;;64.13;33.42;;;15.40;99.90;;;;;;5054995;28;20474;-77
2021/09/27 00:05:25;;;;;;;70.35;35.10;;;15.20;99.90;;;;;;5054988;28;20043;-78
2021/09/27 00:07:51;;;;;;;74.82;33.60;;;15.10;99.90;;;;;;5053789;28;20060;-77
2021/09/27 00:10:22;;;;;;;69.55;33.30;;;15.00;99.90;;;;;;5055105;28;20036;-77
2021/09/27 00:12:49;;;;;;;59.22;30.85;;;15.00;99.90;;;;;;5040047;28;20056;-77
2021/09/27 00:15:19;;;;;;;72.10;33.80;;;14.90;99.90;;;;;;5021410;28;20037;-77
2021/09/27 00:17:45;;;;;;;74.05;35.15;;;14.90;99.90;;;;;;5043976;28;20592;-77
2021/09/27 00:20:12;;;;;;;63.13;32.88;;;14.90;99.90;;;;;;5072918;28;20028;-77
2021/09/27 00:22:38;;;;;;;75.93;36.03;;;14.90;99.90;;;;;;5063826;28;20044;-76
2021/09/27 00:25:06;;;;;;;80.07;36.63;;;14.80;99.90;;;;;;5054344;28;20033;-76
2021/09/27 00:27:32;;;;;;;80.00;36.17;;;14.90;99.90;;;;;;5053789;28;20036;-76
2021/09/27 00:30:00;;;;;;;86.35;38.03;;;14.90;99.90;;;;;;5054876;28;20028;-75
2021/09/27 00:32:27;;;;;;;91.53;40.40;;;14.90;99.90;;;;;;5054273;28;20135;-75
2021/09/27 00:34:53;;;;;;;94.50;37.03;;;14.90;99.90;;;;;;5054216;28;20041;-75
2021/09/27 00:37:19;;;;;;;103.53;40.63;;;14.90;99.90;;;;;;5045850;28;20397;-76
2021/09/27 00:39:46;;;;;;;102.85;41.33;;;14.90;99.90;;;;;;5054475;28;20040;-75
2021/09/27 00:42:12;;;;;;;97.03;40.30;;;14.90;99.90;;;;;;5052595;28;20244;-76
2021/09/27 00:44:38;;;;;;;90.32;37.60;;;14.90;99.90;;;;;;5053310;28;20041;-75
2021/09/27 00:47:05;;;;;;;89.45;39.22;;;14.90;99.90;;;;;;5054114;28;20037;-75
2021/09/27 00:49:31;;;;;;;87.05;39.38;;;14.80;99.90;;;;;;5052787;28;20455;-76
2021/09/27 00:51:57;;;;;;;84.57;37.60;;;14.80;99.90;;;;;;5054058;28;20039;-75
2021/09/27 00:54:32;;;;;;;87.53;37.17;;;14.70;99.90;;;;;;5053385;28;20052;-76
2021/09/27 00:57:15;;;;;;;76.63;37.63;;;14.60;99.90;;;;;;5055760;28;20025;-77
2021/09/27 00:59:46;;;;;;;82.53;36.13;;;14.60;99.90;;;;;;5063517;28;20036;-76
2021/09/27 01:02:12;;;;;;;87.78;37.80;;;14.50;99.90;;;;;;5053613;28;20315;-76
2021/09/27 01:04:39;;;;;;;95.35;40.15;;;14.50;99.90;;;;;;5053942;28;20032;-76
2021/09/27 01:07:40;;;;;;;103.68;42.50;;;14.70;99.90;;;;;;5052918;28;20044;-76
2021/09/27 01:10:37;;;;;;;91.03;37.80;;;14.80;99.90;;;;;;5039059;28;20439;-76
2021/09/27 01:13:13;;;;;;;95.88;39.33;;;14.70;99.90;;;;;;5053050;28;20104;-76
2021/09/27 01:16:10;;;;;;;95.97;41.20;;;14.60;99.90;;;;;;5054751;28;20041;-76
2021/09/27 01:18:39;;;;;;;93.72;38.25;;;14.60;99.90;;;;;;5053141;28;20037;-76
2021/09/27 01:21:17;;;;;;;103.75;43.55;;;14.70;99.90;;;;;;5052531;28;20040;-76
2021/09/27 01:23:52;;;;;;;110.78;42.42;;;14.80;99.90;;;;;;5053311;28;20116;-76
2021/09/27 01:26:45;;;;;;;101.53;42.88;;;14.80;99.90;;;;;;5053600;28;20021;-78
2021/09/27 01:29:30;;;;;;;115.53;43.35;;;14.80;99.90;;;;;;5055256;28;20029;-77
2021/09/27 01:32:17;;;;;;;112.00;42.80;;;14.80;99.90;;;;;;5053502;28;20032;-75
2021/09/27 01:35:08;;;;;;;104.60;41.15;;;14.80;99.90;;;;;;5053506;28;20036;-76
2021/09/27 01:38:02;;;;;;;117.00;44.63;;;14.90;99.90;;;;;;5053438;28;20048;-76
2021/09/27 01:40:34;;;;;;;107.43;41.05;;;14.90;99.90;;;;;;5053698;28;20458;-77
2021/09/27 01:43:27;;;;;;;113.43;42.92;;;14.90;99.90;;;;;;5052869;28;20442;-76
2021/09/27 01:46:12;;;;;;;117.28;42.65;;;14.90;99.90;;;;;;5060962;28;20398;-75
2021/09/27 01:49:22;;;;;;;107.40;42.42;;;14.90;99.90;;;;;;5068529;28;20033;-77
2021/09/27 01:52:15;;;;;;;101.05;42.30;;;15.00;99.90;;;;;;5043027;28;20048;-77
2021/09/27 01:54:48;;;;;;;106.05;37.15;;;15.00;99.90;;;;;;5052809;28;20033;-77
2021/09/27 01:57:31;;;;;;;115.50;40.58;;;15.00;99.90;;;;;;5052091;28;20048;-77
2021/09/27 02:00:11;;;;;;;107.78;42.45;;;15.00;99.90;;;;;;5052780;28;20033;-77
2021/09/27 02:03:12;;;;;;;97.43;41.63;;;15.00;99.90;;;;;;5053063;28;20025;-77
2021/09/27 02:05:44;;;;;;;102.35;39.83;;;15.00;99.90;;;;;;5044773;28;20044;-77
2021/09/27 02:08:19;;;;;;;101.72;41.42;;;15.00;99.90;;;;;;5052633;28;20052;-75
2021/09/27 02:11:05;;;;;;;102.50;39.72;;;15.00;99.90;;;;;;5053305;28;20037;-77
2021/09/27 02:13:36;;;;;;;106.97;37.17;;;15.00;99.90;;;;;;5034365;28;20057;-76
2021/09/27 02:16:07;;;;;;;109.38;37.70;;;15.00;99.90;;;;;;5052496;28;20029;-76
2021/09/27 02:18:59;;;;;;;91.55;34.50;;;15.00;99.90;;;;;;5053358;28;20029;-76
2021/09/27 02:21:31;;;;;;;101.97;34.65;;;15.00;99.90;;;;;;5052606;28;20109;-77
2021/09/27 02:24:31;;;;;;;98.05;36.00;;;14.90;99.90;;;;;;5052370;28;20532;-76
2021/09/27 02:26:57;;;;;;;98.30;36.13;;;14.90;99.90;;;;;;5052282;28;20398;-76
2021/09/27 02:29:24;;;;;;;102.80;36.78;;;14.90;99.90;;;;;;5052727;28;20028;-77
2021/09/27 02:32:07;;;;;;;107.43;34.75;;;14.90;99.90;;;;;;5052119;28;20477;-77
2021/09/27 02:34:43;;;;;;;90.88;34.72;;;14.90;99.90;;;;;;5052416;28;20044;-77
2021/09/27 02:37:44;;;;;;;101.57;35.15;;;14.90;99.90;;;;;;5051810;28;20375;-77
2021/09/27 02:40:23;;;;;;;99.30;36.38;;;14.90;99.90;;;;;;5052060;28;20036;-77
2021/09/27 02:42:53;;;;;;;89.28;33.60;;;14.90;99.90;;;;;;5052314;28;20025;-77
2021/09/27 02:45:21;;;;;;;90.95;34.38;;;14.90;99.90;;;;;;5051745;28;20045;-76
2021/09/27 02:47:53;;;;;;;102.65;35.60;;;14.80;99.90;;;;;;5052012;28;20040;-76
2021/09/27 02:50:27;;;;;;;100.38;34.83;;;14.80;99.90;;;;;;5054124;28;20036;-75
2021/09/27 02:52:56;;;;;;;98.90;35.47;;;14.80;99.90;;;;;;5039811;28;20458;-76
2021/09/27 02:55:32;;;;;;;92.18;34.47;;;14.80;99.90;;;;;;5050848;28;20045;-76
2021/09/27 02:58:07;;;;;;;100.25;36.85;;;14.80;99.90;;;;;;5052517;28;20044;-77
2021/09/27 03:00:59;;;;;;;94.40;35.65;;;14.90;99.90;;;;;;5053285;28;20037;-78
2021/09/27 03:03:49;;;;;;;99.78;35.83;;;15.00;99.90;;;;;;5052213;28;20041;-77
2021/09/27 03:06:21;;;;;;;95.65;35.03;;;15.00;99.90;;;;;;5052166;28;20678;-78
2021/09/27 03:09:15;;;;;;;88.05;34.10;;;14.90;99.90;;;;;;5052352;28;20024;-76
2021/09/27 03:12:00;;;;;;;92.85;35.78;;;15.00;99.90;;;;;;5052087;28;20025;-77
2021/09/27 03:15:13;;;;;;;106.28;37.03;;;14.90;99.90;;;;;;5051832;28;20508;-76
2021/09/27 03:17:54;;;;;;;90.28;33.30;;;15.00;99.90;;;;;;5052388;28;20044;-78
2021/09/27 03:20:52;;;;;;;106.40;36.88;;;15.00;99.90;;;;;;5052258;28;20487;-78
2021/09/27 03:23:44;;;;;;;104.43;35.22;;;15.00;99.90;;;;;;5051017;28;20029;-76
2021/09/27 03:26:48;;;;;;;91.18;35.58;;;15.00;99.90;;;;;;5048804;28;20045;-78
2021/09/27 03:29:40;;;;;;;105.07;37.33;;;15.00;99.90;;;;;;5051503;28;20409;-77
2021/09/27 03:32:38;;;;;;;97.20;36.45;;;15.00;99.90;;;;;;5056068;28;20040;-78
2021/09/27 03:35:18;;;;;;;102.80;36.35;;;15.00;99.90;;;;;;5063422;28;20048;-78
2021/09/27 03:38:10;;;;;;;101.35;38.53;;;15.10;99.90;;;;;;5052389;28;20064;-76
2021/09/27 03:40:47;;;;;;;102.53;36.58;;;15.00;99.90;;;;;;5052201;28;20029;-75
2021/09/27 03:43:46;;;;;;;97.72;36.45;;;15.10;99.90;;;;;;5052824;28;20049;-77
2021/09/27 03:46:42;;;;;;;98.00;36.42;;;15.10;99.90;;;;;;5020927;28;20410;-78
2021/09/27 03:49:14;;;;;;;109.82;38.20;;;15.10;99.90;;;;;;5055240;28;20040;-77
2021/09/27 03:52:05;;;;;;;105.15;36.00;;;15.10;99.90;;;;;;5055455;28;20029;-76
2021/09/27 03:54:37;;;;;;;118.28;38.85;;;15.10;99.90;;;;;;5037752;28;20052;-78
2021/09/27 03:57:09;;;;;;;96.80;35.47;;;15.10;99.90;;;;;;5055288;28;20029;-76
2021/09/27 04:00:05;;;;;;;109.50;39.63;;;15.10;99.90;;;;;;5055518;28;20041;-77
2021/09/27 04:02:47;;;;;;;105.40;36.15;;;15.10;99.90;;;;;;5031834;28;20056;-76
2021/09/27 04:05:16;;;;;;;102.45;36.63;;;15.10;99.90;;;;;;5054646;28;20044;-76
2021/09/27 04:08:09;;;;;;;111.00;35.88;;;15.10;99.90;;;;;;5074015;28;20032;-76
2021/09/27 04:11:14;;;;;;;86.75;34.10;;;15.10;99.90;;;;;;5054831;28;20443;-77
2021/09/27 04:14:10;;;;;;;98.28;34.15;;;15.10;99.90;;;;;;5053883;28;20053;-75
2021/09/27 04:16:59;;;;;;;99.75;35.10;;;15.00;99.90;;;;;;5043643;28;20060;-77
2021/09/27 04:19:46;;;;;;;92.75;32.70;;;15.00;99.90;;;;;;5054984;28;20051;-77
2021/09/27 04:22:14;;;;;;;94.55;35.90;;;14.90;99.90;;;;;;5054073;28;20032;-76
2021/09/27 04:25:07;;;;;;;101.32;35.63;;;14.90;99.90;;;;;;5053448;28;20052;-76
2021/09/27 04:27:55;;;;;;;106.18;36.45;;;14.90;99.90;;;;;;5054939;28;20036;-77
2021/09/27 04:30:34;;;;;;;90.63;34.70;;;14.80;99.90;;;;;;5062770;28;20033;-77
2021/09/27 04:33:09;;;;;;;94.28;32.88;;;14.80;99.90;;;;;;5035979;28;20626;-76
2021/09/27 04:35:51;;;;;;;96.85;34.05;;;14.80;99.90;;;;;;5054846;28;20033;-76
2021/09/27 04:38:19;;;;;;;99.07;34.45;;;14.80;99.90;;;;;;5054003;28;20032;-77
2021/09/27 04:41:02;;;;;;;101.95;34.67;;;14.80;99.90;;;;;;5054243;28;20025;-77
2021/09/27 04:44:02;;;;;;;100.82;35.60;;;14.70;99.90;;;;;;5053616;28;20029;-77
2021/09/27 04:47:07;;;;;;;100.22;35.53;;;14.80;99.90;;;;;;5055368;28;20037;-77
2021/09/27 04:50:02;;;;;;;111.93;36.03;;;14.80;99.90;;;;;;4986945;28;20045;-77
2021/09/27 04:52:34;;;;;;;101.18;35.75;;;14.80;99.90;;;;;;5053738;28;20025;-77
2021/09/27 04:55:22;;;;;;;98.45;35.95;;;14.80;99.90;;;;;;5053211;28;20037;-77
2021/09/27 04:57:58;;;;;;;108.78;37.38;;;14.80;99.90;;;;;;5054297;28;20044;-77
2021/09/27 05:00:48;;;;;;;104.35;36.15;;;14.90;99.90;;;;;;5054157;28;20032;-77
2021/09/27 05:03:32;;;;;;;104.88;33.72;;;14.90;99.90;;;;;;5052956;28;20049;-77
2021/09/27 05:06:07;;;;;;;107.47;37.28;;;14.90;99.90;;;;;;5053576;28;20032;-77
2021/09/27 05:08:52;;;;;;;100.53;32.03;;;14.90;99.90;;;;;;5053253;28;20045;-77
2021/09/27 05:11:36;;;;;;;106.03;33.58;;;14.80;99.90;;;;;;5053072;28;20033;-78
2021/09/27 05:14:33;;;;;;;105.80;32.70;;;14.80;99.90;;;;;;5035203;28;20463;-77
2021/09/27 05:17:31;;;;;;;97.57;32.67;;;14.80;99.90;;;;;;5035630;28;20041;-77
2021/09/27 05:20:03;;;;;;;101.22;35.30;;;14.80;99.90;;;;;;5053520;28;20378;-77
2021/09/27 05:22:38;;;;;;;95.00;30.75;;;14.60;99.90;;;;;;5061984;28;20025;-77
2021/09/27 05:25:14;;;;;;;110.35;34.80;;;14.70;99.90;;;;;;5062534;28;20494;-76
2021/09/27 05:27:52;;;;;;;98.22;32.65;;;14.60;99.90;;;;;;5053319;28;20354;-77
2021/09/27 05:30:46;;;;;;;94.30;34.83;;;14.60;99.90;;;;;;5053150;28;20486;-78
2021/09/27 05:33:37;;;;;;;564.22;93.53;;;14.50;99.90;;;;;;5053848;28;20374;-78
2021/09/27 05:36:17;;;;;;;122.85;53.42;;;14.50;99.90;;;;;;5057000;28;20461;-77
2021/09/27 05:39:16;;;;;;;131.13;52.22;;;14.50;99.90;;;;;;5071250;28;20390;-78
2021/09/27 05:42:02;;;;;;;183.25;59.13;;;14.50;99.90;;;;;;5053140;28;20029;-77
2021/09/27 05:44:34;;;;;;;162.38;54.60;;;14.50;99.90;;;;;;5053009;28;20061;-78
2021/09/27 05:47:28;;;;;;;167.25;61.47;;;14.50;99.90;;;;;;5039995;28;20037;-78
2021/09/27 05:50:26;;;;;;;105.57;40.42;;;14.50;99.90;;;;;;5057812;28;20044;-76
2021/09/27 05:53:15;;;;;;;94.70;39.00;;;14.60;99.90;;;;;;5053951;28;20075;-78
2021/09/27 05:55:48;;;;;;;106.32;41.65;;;14.60;99.90;;;;;;5051628;28;20479;-78
2021/09/27 05:58:44;;;;;;;96.35;40.85;;;14.80;99.90;;;;;;5052704;28;20108;-78
2021/09/27 06:01:35;;;;;;;108.32;41.80;;;14.80;99.90;;;;;;5052519;28;20040;-78
2021/09/27 06:04:24;;;;;;;88.55;38.40;;;14.90;99.90;;;;;;5052239;28;20037;-77
2021/09/27 06:07:28;;;;;;;86.03;38.17;;;15.00;99.90;;;;;;5052499;28;20045;-77
2021/09/27 06:10:03;;;;;;;411.80;63.40;;;15.10;99.90;;;;;;5052449;28;20367;-77
2021/09/27 06:12:53;;;;;;;79.63;35.85;;;15.10;99.90;;;;;;5051994;28;20029;-77
2021/09/27 06:15:25;;;;;;;85.65;36.70;;;15.20;99.90;;;;;;5052078;28;20033;-77
2021/09/27 06:18:26;;;;;;;67.15;35.05;;;15.20;99.90;;;;;;5052493;28;20414;-77
2021/09/27 06:21:00;;;;;;;;;;;15.30;99.90;;;;;;5051652;28;20040;-77
2021/09/27 06:23:45;;;;;;;32.33;22.13;;;15.40;99.90;;;;;;5052178;28;19912;-77
2021/09/27 06:26:15;;;;;;;50.20;27.15;;;15.30;99.90;;;;;;5051250;28;20037;-75
2021/09/27 06:29:07;;;;;;;61.08;29.58;;;15.30;99.90;;;;;;5052354;28;20029;-76
2021/09/27 06:31:38;;;;;;;56.72;32.17;;;15.20;99.90;;;;;;5052896;28;20036;-77
2021/09/27 06:34:39;;;;;;;;;;;15.10;99.90;;;;;;5051890;28;20067;-76
2021/09/27 06:37:05;;;;;;;65.68;33.55;;;15.20;99.90;;;;;;5016238;28;20298;-75
2021/09/27 06:39:33;;;;;;;61.63;32.53;;;15.60;99.90;;;;;;5043604;28;20044;-75
2021/09/27 06:41:59;;;;;;;53.35;29.33;;;16.00;99.90;;;;;;5052363;28;20029;-75
2021/09/27 06:44:25;;;;;;;42.05;26.08;;;16.50;99.90;;;;;;5051341;28;20041;-76
2021/09/27 06:46:53;;;;;;;36.03;23.88;;;16.20;99.90;;;;;;5036728;28;20033;-77
2021/09/27 06:49:19;;;;;;;34.15;22.75;;;16.30;99.90;;;;;;5058318;28;20362;-76
2021/09/27 06:51:46;;;;;;;33.80;22.50;;;16.50;99.90;;;;;;5051546;28;20040;-76
2021/09/27 06:54:14;;;;;;;29.25;20.30;;;16.70;99.90;;;;;;5051433;28;20041;-75
2021/09/27 06:56:41;;;;;;;24.45;18.48;;;17.00;99.90;;;;;;5051725;28;20037;-76
2021/09/27 06:59:08;;;;;;;28.20;20.55;;;17.20;99.90;;;;;;5051566;28;20033;-76
2021/09/27 07:01:35;;;;;;;26.40;18.83;;;17.50;99.90;;;;;;5051616;28;20033;-76
2021/09/27 07:04:01;;;;;;;22.17;17.73;;;17.70;99.90;;;;;;5049000;28;20048;-75
2021/09/27 07:06:28;;;;;;;29.88;22.20;;;17.70;99.90;;;;;;5051628;28;20032;-76
2021/09/27 07:08:55;;;;;;;21.75;18.90;;;17.70;99.90;;;;;;5057704;28;20025;-76
2021/09/27 07:11:22;;;;;;;23.85;20.83;;;17.70;99.90;;;;;;5063271;28;20386;-76
2021/09/27 07:13:48;;;;;;;24.67;19.08;;;17.70;99.90;;;;;;5052290;28;20455;-76
2021/09/27 07:16:14;;;;;;;23.08;17.98;;;17.90;99.90;;;;;;5051585;28;20063;-76
2021/09/27 07:18:41;;;;;;;22.90;17.90;;;18.10;99.90;;;;;;5054826;28;20478;-76
2021/09/27 07:21:10;;;;;;;23.63;17.55;;;18.20;99.90;;;;;;5055754;28;20049;-76
2021/09/27 07:23:40;;;;;;;17.38;15.13;;;18.40;99.90;;;;;;5056319;28;20044;-76
2021/09/27 07:26:07;;;;;;;;;;;18.30;99.90;;;;;;5056013;28;20119;-76
2021/09/27 07:28:34;;;;;;;18.35;14.45;;;18.20;99.90;;;;;;5055356;28;20380;-76
2021/09/27 07:31:00;;;;;;;17.58;15.05;;;18.10;99.90;;;;;;5055689;28;20029;-78
2021/09/27 07:33:28;;;;;;;19.05;16.77;;;18.20;99.90;;;;;;5037881;28;20060;-76
2021/09/27 07:35:55;;;;;;;21.02;17.10;;;18.10;99.90;;;;;;5067963;28;20028;-76
2021/09/27 07:38:23;;;;;;;20.30;16.60;;;18.00;99.90;;;;;;5072432;28;20032;-76
2021/09/27 07:40:50;;;;;;;18.83;15.05;;;17.70;99.90;;;;;;5073284;28;20033;-75
2021/09/27 07:43:17;;;;;;;20.48;15.98;;;17.70;99.90;;;;;;5071170;28;20040;-75
2021/09/27 07:45:45;;;;;;;20.33;15.93;;;17.50;99.90;;;;;;5055148;28;20053;-78
2021/09/27 07:48:16;;;;;;;20.73;16.90;;;17.40;99.90;;;;;;5055440;28;20406;-76
2021/09/27 07:50:48;;;;;;;22.63;17.42;;;17.30;99.90;;;;;;5037744;28;20052;-76
2021/09/27 07:53:16;;;;;;;23.15;17.05;;;17.20;99.90;;;;;;5055179;28;20044;-75
2021/09/27 07:55:42;;;;;;;22.67;16.80;;;17.10;99.90;;;;;;5055312;28;20059;-76
2021/09/27 07:58:09;;;;;;;23.27;16.75;;;17.00;99.90;;;;;;5056699;28;20064;-76
2021/09/27 08:00:36;;;;;;;23.05;16.65;;;16.90;99.90;;;;;;5067179;28;20040;-76
2021/09/27 08:03:03;;;;;;;25.00;18.15;;;16.90;99.90;;;;;;5069497;28;20406;-75
2021/09/27 08:05:30;;;;;;;24.10;17.45;;;16.90;99.90;;;;;;5055357;28;20029;-76
2021/09/27 08:07:58;;;;;;;25.73;17.52;;;17.00;99.90;;;;;;5054969;28;20479;-76
2021/09/27 08:10:26;;;;;;;23.63;16.50;;;17.00;99.90;;;;;;5056940;28;20048;-76
2021/09/27 08:12:52;;;;;;;22.67;16.00;;;16.90;99.90;;;;;;5069084;28;20025;-75
2021/09/27 08:15:23;;;;;;;20.02;15.73;;;16.90;99.90;;;;;;5058974;28;20033;-76
2021/09/27 08:17:51;;;;;;;25.08;15.68;;;16.90;99.90;;;;;;5071754;28;20040;-76
2021/09/27 08:20:21;;;;;;;245.00;44.20;;;16.90;99.90;;;;;;5068316;28;20029;-78
2021/09/27 08:22:48;;;;;;;22.30;14.43;;;16.90;99.90;;;;;;5062867;28;20041;-78
2021/09/27 08:25:15;;;;;;;18.55;13.75;;;16.80;99.90;;;;;;5056743;28;20289;-77
2021/09/27 08:27:45;;;;;;;20.33;14.48;;;16.90;99.90;;;;;;5063128;28;20028;-77
2021/09/27 08:30:18;;;;;;;19.73;14.73;;;17.00;99.90;;;;;;5064862;28;20069;-76
2021/09/27 08:32:46;;;;;;;20.80;15.05;;;17.10;99.90;;;;;;5056461;28;20378;-75
2021/09/27 08:35:14;;;;;;;17.92;13.88;;;17.10;99.90;;;;;;5055025;28;20045;-77
2021/09/27 08:37:41;;;;;;;19.15;14.52;;;17.10;99.90;;;;;;5058307;28;20043;-77
2021/09/27 08:40:29;;;;;;;20.08;13.50;;;17.10;99.90;;;;;;5073480;28;20032;-79
2021/09/27 08:42:56;;;;;;;20.58;13.80;;;17.20;99.90;;;;;;5060024;28;20033;-77
2021/09/27 08:45:27;;;;;;;20.17;13.75;;;17.30;99.90;;;;;;5056692;28;20505;-81
2021/09/27 08:48:35;;;;;;;17.92;12.55;;;17.40;99.90;;;;;;5057285;28;20111;-80
2021/09/27 08:51:01;;;;;;;19.75;13.07;;;17.50;99.90;;;;;;5052282;28;20036;-79
2021/09/27 08:53:36;;;;;;;18.30;12.50;;;17.60;99.90;;;;;;5055876;28;20029;-79
2021/09/27 08:56:33;;;;;;;15.63;12.07;;;17.70;99.90;;;;;;5057243;28;20049;-77
2021/09/27 08:59:11;;;;;;;15.80;12.63;;;17.80;99.90;;;;;;5059773;28;20045;-79
2021/09/27 09:01:59;;;;;;;18.63;12.40;;;17.80;99.90;;;;;;5039584;28;20033;-79
2021/09/27 09:05:03;;;;;;;17.23;13.20;;;17.70;99.90;;;;;;5043634;28;20045;-83
2021/09/27 09:07:31;;;;;;;15.75;12.82;;;17.70;99.90;;;;;;5058684;28;20029;-82
2021/09/27 09:10:03;;;;;;;17.55;12.55;;;17.80;99.90;;;;;;5056383;28;20044;-79
2021/09/27 09:12:35;;;;;;;19.73;12.73;;;18.00;99.90;;;;;;5060628;28;20041;-81
2021/09/27 09:15:18;;;;;;;16.80;13.00;;;18.10;99.90;;;;;;5058768;28;20037;-82
2021/09/27 09:17:52;;;;;;;15.55;12.43;;;18.40;99.90;;;;;;5067629;28;20052;-84
2021/09/27 09:20:38;;;;;;;17.00;12.30;;;18.40;99.90;;;;;;5057227;28;20029;-82
2021/09/27 09:23:05;;;;;;;14.70;12.35;;;18.40;99.90;;;;;;5076094;28;20046;-81
2021/09/27 09:25:35;;;;;;;16.92;12.10;;;18.40;99.90;;;;;;5064932;28;20036;-84
2021/09/27 09:28:06;;;;;;;15.60;13.23;;;18.40;99.90;;;;;;5071950;28;20496;-81
2021/09/27 09:30:50;;;;;;;17.60;13.13;;;18.40;99.90;;;;;;5055748;28;20398;-81
2021/09/27 09:33:37;;;;;;;16.17;12.57;;;18.40;99.90;;;;;;5054643;28;20378;-82
2021/09/27 09:36:05;;;;;;;15.70;12.68;;;18.50;99.90;;;;;;5059944;28;20047;-83
2021/09/27 09:38:36;;;;;;;16.83;12.40;;;18.80;99.90;;;;;;5062022;28;20181;-83
2021/09/27 09:41:05;;;;;;;15.98;12.20;;;19.00;99.90;;;;;;5061948;28;20035;-80
2021/09/27 09:43:38;;;;;;;15.80;12.57;;;19.20;99.90;;;;;;5056732;28;20040;-82
2021/09/27 09:46:12;;;;;;;14.15;11.32;;;19.10;99.90;;;;;;5058082;28;20049;-81
2021/09/27 09:48:57;;;;;;;14.23;11.70;;;19.00;99.90;;;;;;5059726;28;20045;-82
2021/09/27 09:51:34;;;;;;;14.88;11.35;;;19.10;99.90;;;;;;5062736;28;20398;-79
2021/09/27 09:54:08;;;;;;;13.57;10.52;;;19.20;99.90;;;;;;5057461;28;20379;-78
2021/09/27 09:56:37;;;;;;;14.05;11.00;;;19.40;99.90;;;;;;5068236;28;20478;-82
2021/09/27 09:59:35;;;;;;;13.65;10.85;;;19.60;99.90;;;;;;5042409;28;20516;-78
2021/09/27 10:02:07;;;;;;;10.45;9.13;;;19.90;99.90;;;;;;5053801;28;20033;-81
2021/09/27 10:04:42;;;;;;;10.50;8.48;;;20.00;99.90;;;;;;5053943;28;20033;-81
2021/09/27 10:07:16;;;;;;;13.55;9.38;;;20.20;99.90;;;;;;5054654;28;20040;-84
2021/09/27 10:09:51;;;;;;;11.38;8.80;;;20.50;98.50;;;;;;5053784;28;20036;-85
2021/09/27 10:12:42;;;;;;;11.52;8.85;;;20.60;97.90;;;;;;5053582;28;20040;-86
2021/09/27 10:15:15;;;;;;;12.55;9.38;;;20.50;97.30;;;;;;5053659;28;20386;-84
2021/09/27 10:17:42;;;;;;;9.85;8.25;;;20.20;97.40;;;;;;5055472;28;20037;-83
2021/09/27 10:20:32;;;;;;;11.98;8.27;;;20.10;96.50;;;;;;5054308;28;20025;-83
2021/09/27 10:23:02;;;;;;;11.82;8.93;;;20.10;97.20;;;;;;5006038;28;20032;-83
2021/09/27 10:25:38;;;;;;;10.68;7.82;;;20.30;96.60;;;;;;5052728;28;20033;-85
2021/09/27 10:28:07;;;;;;;10.57;8.50;;;20.70;97.00;;;;;;5034961;28;20037;-85
2021/09/27 10:30:44;;;;;;;10.73;7.57;;;20.90;95.60;;;;;;5053074;28;20029;-85
2021/09/27 10:33:18;;;;;;;11.38;7.18;;;21.10;94.80;;;;;;5050971;28;20029;-85
2021/09/27 10:35:53;;;;;;;12.25;7.32;;;21.50;93.80;;;;;;5053037;28;20045;-84
2021/09/27 10:38:30;;;;;;;10.23;6.95;;;21.50;91.80;;;;;;5034171;28;20045;-84
2021/09/27 10:41:04;;;;;;;8.13;6.57;;;21.20;93.20;;;;;;5054048;28;20040;-85
2021/09/27 10:43:31;;;;;;;9.55;6.57;;;21.30;92.70;;;;;;5074404;28;20033;-85
2021/09/27 10:46:01;;;;;;;9.27;6.13;;;21.30;91.90;;;;;;5033168;28;20068;-86
2021/09/27 10:48:30;;;;;;;7.68;6.07;;;21.30;91.50;;;;;;5015043;28;20042;-85
2021/09/27 10:51:06;;;;;;;8.18;5.78;;;21.50;91.30;;;;;;5018690;28;20380;-81
2021/09/27 10:53:36;;;;;;;8.27;5.88;;;21.60;90.90;;;;;;5023269;28;20030;-85
2021/09/27 10:56:11;;;;;;;;;;;21.70;89.50;;;;;;5023760;28;20483;-86
2021/09/27 10:58:52;;;;;;;5.88;4.97;;;21.90;89.30;;;;;;5025039;28;20417;-85
2021/09/27 11:01:55;;;;;;;7.18;5.63;;;22.10;86.60;;;;;;5031348;28;20382;-85
2021/09/27 11:04:33;;;;;;;7.32;5.75;;;22.10;87.40;;;;;;5006149;28;20509;-83
2021/09/27 11:07:14;;;;;;;7.85;4.72;;;22.10;85.80;;;;;;5006527;28;20049;-83
2021/09/27 11:09:43;;;;;;;;;;;21.90;86.90;;;;;;5004649;28;20034;-83
2021/09/27 11:12:15;;;;;;;6.70;4.78;;;22.00;86.90;;;;;;5010677;28;19917;-78
2021/09/27 11:14:58;;;;;;;102.20;17.45;;;22.10;84.60;;;;;;5021752;28;20047;-77
2021/09/27 11:17:40;;;;;;;7.45;6.00;;;22.30;84.40;;;;;;4990262;28;20050;-84
2021/09/27 11:20:15;;;;;;;39.28;9.13;;;22.60;82.40;;;;;;5004390;28;20117;-76
2021/09/27 11:23:17;;;;;;;22.90;7.05;;;22.70;80.30;;;;;;5006655;28;20034;-83
2021/09/27 11:26:05;;;;;;;6.90;6.20;;;22.60;81.80;;;;;;5005102;28;20061;-84
2021/09/27 11:29:01;;;;;;;6.50;5.75;;;22.70;81.60;;;;;;5003859;28;20038;-82
2021/09/27 11:31:27;;;;;;;6.35;5.75;;;23.20;80.50;;;;;;4989487;28;20050;-81
2021/09/27 11:34:08;;;;;;;8.05;6.13;;;23.20;77.40;;;;;;4992631;28;20043;-82
2021/09/27 11:37:07;;;;;;;6.28;5.38;;;22.70;78.40;;;;;;4999894;28;20049;-81
2021/09/27 11:39:41;;;;;;;7.13;5.43;;;22.40;78.50;;;;;;4992553;28;20049;-81
2021/09/27 11:42:31;;;;;;;58.00;13.38;;;22.10;80.00;;;;;;5020292;28;20026;-77
2021/09/27 11:45:01;;;;;;;1999.90;999.90;;;22.10;80.80;;;;;;5025858;28;20057;-82
2021/09/27 11:47:46;;;;;;;1999.90;999.90;;;22.30;80.80;;;;;;5018659;28;20623;-82
2021/09/27 11:50:30;;;;;;;1999.90;999.90;;;22.40;80.10;;;;;;5018246;28;20037;-79
2021/09/27 11:53:01;;;;;;;1999.90;999.90;;;22.40;78.80;;;;;;5018890;28;20111;-82
2021/09/27 11:55:31;;;;;;;1999.90;999.90;;;22.20;78.30;;;;;;5018152;28;20053;-82
2021/09/27 11:58:15;;;;;;;1999.90;999.90;;;22.00;79.40;;;;;;5018091;28;20038;-82
2021/09/27 12:00:49;;;;;;;1999.90;999.90;;;21.90;80.20;;;;;;5019548;28;20038;-82
2021/09/27 12:03:24;;;;;;;1999.90;999.90;;;21.90;79.70;;;;;;5016365;28;20034;-82
2021/09/27 12:06:15;;;;;;;1999.90;999.90;;;21.80;79.80;;;;;;5017292;28;20494;-82
2021/09/27 12:09:02;;;;;;;1999.90;999.90;;;21.60;78.90;;;;;;5015247;28;20041;-82
2021/09/27 12:11:31;;;;;;;1999.90;999.90;;;21.60;79.70;;;;;;5015492;28;20030;-82
2021/09/27 12:14:00;;;;;;;5.10;3.25;;;21.60;79.80;;;;;;5015542;28;20033;-84
2021/09/27 12:16:36;;;;;;;3.70;2.97;;;21.60;79.00;;;;;;5015197;28;20483;-83
2021/09/27 12:19:24;;;;;;;2.50;2.30;;;21.70;80.90;;;;;;5017932;28;20041;-83
2021/09/27 12:22:07;;;;;;;1999.90;999.90;;;22.00;79.20;;;;;;5018001;28;20038;-83
2021/09/27 12:24:36;;;;;;;1999.90;999.90;;;22.30;76.70;;;;;;5016203;28;20030;-83
2021/09/27 12:27:27;;;;;;;1999.90;999.90;;;22.50;75.90;;;;;;5017676;28;20045;-83
2021/09/27 12:30:02;;;;;;;1999.90;999.90;;;22.50;75.40;;;;;;5016767;28;20056;-84
2021/09/27 12:32:38;;;;;;;1999.90;999.90;;;22.50;75.60;;;;;;5016398;28;20048;-83
2021/09/27 12:35:09;;;;;;;1999.90;999.90;;;22.50;76.00;;;;;;5018902;28;20034;-82
2021/09/27 12:37:39;;;;;;;1999.90;999.90;;;22.50;74.30;;;;;;5016860;28;20038;-82
2021/09/27 12:40:10;;;;;;;1999.90;999.90;;;22.60;74.10;;;;;;5021328;28;20503;-83
2021/09/27 12:42:51;;;;;;;1999.90;999.90;;;22.70;74.00;;;;;;5035636;28;20120;-82
2021/09/27 12:45:31;;;;;;;1999.90;999.90;;;22.70;74.70;;;;;;5030667;28;20054;-84
2021/09/27 12:48:03;;;;;;;1999.90;999.90;;;22.80;74.00;;;;;;5022153;28;20038;-82
2021/09/27 12:50:30;;;;;;;1999.90;999.90;;;22.90;73.40;;;;;;5019002;28;20040;-81
2021/09/27 12:53:02;;;;;;;1999.90;999.90;;;22.80;74.20;;;;;;5017147;28;20042;-82
2021/09/27 12:55:54;;;;;;;1999.90;999.90;;;22.80;74.40;;;;;;5015261;28;20278;-82
2021/09/27 12:58:35;;;;;;;1999.90;999.90;;;23.00;73.70;;;;;;5013140;28;20046;-82
2021/09/27 13:01:05;;;;;;;1999.90;999.90;;;23.10;72.80;;;;;;5014581;28;20033;-83
2021/09/27 13:03:32;;;;;;;1999.90;999.90;;;23.00;71.70;;;;;;5014073;28;20038;-82
2021/09/27 13:06:10;;;;;;;1999.90;999.90;;;23.10;71.70;;;;;;5014287;28;20387;-82
2021/09/27 13:08:50;;;;;;;1999.90;999.90;;;23.30;71.50;;;;;;5015772;28;20046;-81
2021/09/27 13:11:36;;;;;;;1999.90;999.90;;;23.70;71.50;;;;;;5014865;28;20029;-83
2021/09/27 13:14:07;;;;;;;1999.90;999.90;;;23.80;71.20;;;;;;5023398;28;20044;-83
2021/09/27 13:16:38;;;;;;;1999.90;999.90;;;23.60;70.50;;;;;;5017047;28;20046;-83
2021/09/27 13:19:07;;;;;;;1999.90;999.90;;;23.90;69.70;;;;;;5014044;28;20034;-82